Time;durP1;ratioP1;P1;durP2;ratioP2;P2;SDS_P1;SDS_P2;PMS_P1;PMS_P2;Temp;Humidity;BMP_temperature;BMP_pressure;BME280_temperature;BME280_humidity;BME280_pressure;Samples;Min_cycle;Max_cycle;Signal;HPM_P1;HPM_P2
2024/01/07 00:02:07;;;;;;;;;6.75;4.50;;;;;8.37;61.28;101282.72;4970848;28;45416;-64
2024/01/07 00:04:34;;;;;;;;;6.00;6.00;;;;;8.40;61.76;101294.97;4975835;28;45941;-65
2024/01/07 00:07:00;;;;;;;;;5.00;3.25;;;;;8.31;61.07;101282.63;4991125;28;48290;-64
2024/01/07 00:09:25;;;;;;;;;6.50;5.00;;;;;8.28;61.38;101279.94;4974306;28;45670;-64
2024/01/07 00:11:51;;;;;;;;;5.00;5.00;;;;;8.28;61.21;101285.16;4990349;28;45531;-64
2024/01/07 00:14:20;;;;;;;;;6.00;5.00;;;;;8.35;60.93;101300.13;4972839;28;45619;-63
2024/01/07 00:16:45;;;;;;;;;9.50;5.75;;;;;8.22;60.84;101285.03;4974290;28;45582;-63
2024/01/07 00:19:11;;;;;;;;;4.75;4.25;;;;;8.26;60.98;101295.56;4973341;28;45493;-64
2024/01/07 00:21:39;;;;;;;;;5.25;5.00;;;;;8.18;61.17;101285.81;4976129;28;46060;-62
2024/01/07 00:24:04;;;;;;;;;7.25;4.50;;;;;8.23;61.16;101299.84;4975035;28;45743;-64
2024/01/07 00:26:30;;;;;;;;;5.75;5.75;;;;;8.21;63.31;101301.53;4974474;28;45810;-65
2024/01/07 00:28:55;;;;;;;;;3.50;3.50;;;;;8.26;61.21;101305.16;4974344;28;45565;-63
2024/01/07 00:31:21;;;;;;;;;4.25;3.00;;;;;8.26;61.36;101308.63;4973339;28;45970;-62
2024/01/07 00:33:46;;;;;;;;;5.50;4.00;;;;;8.27;61.14;101301.66;4975128;28;45585;-62
2024/01/07 00:36:12;;;;;;;;;1.50;1.00;;;;;8.21;61.23;101291.09;4973791;28;46182;-65
2024/01/07 00:38:38;;;;;;;;;5.75;5.00;;;;;8.29;61.00;101308.69;4971586;28;46362;-64
2024/01/07 00:41:03;;;;;;;;;6.25;4.75;;;;;8.19;61.30;101296.28;4973800;28;45292;-63
2024/01/07 00:43:30;;;;;;;;;5.25;3.75;;;;;8.28;61.12;101306.03;4974196;28;45878;-63
2024/01/07 00:45:55;;;;;;;;;4.00;4.00;;;;;8.21;60.75;101302.44;4975493;28;45915;-63
2024/01/07 00:48:21;;;;;;;;;5.50;5.50;;;;;8.20;60.95;101310.22;4974363;28;45624;-63
2024/01/07 00:50:46;;;;;;;;;4.50;4.50;;;;;8.16;61.09;101301.47;4974434;28;45407;-63
2024/01/07 00:53:12;;;;;;;;;8.25;5.00;;;;;8.23;60.77;101308.56;4974280;28;45922;-64
2024/01/07 00:55:38;;;;;;;;;5.25;4.25;;;;;8.21;61.14;101309.34;4974274;28;45912;-63
2024/01/07 00:58:04;;;;;;;;;9.75;4.50;;;;;8.12;60.85;101297.03;4974962;28;45479;-63
2024/01/07 01:00:30;;;;;;;;;7.25;4.25;;;;;8.13;60.96;101292.69;4972616;28;45569;-63
2024/01/07 01:02:55;;;;;;;;;5.25;4.00;;;;;8.20;60.87;101318.91;4975060;28;45608;-62
2024/01/07 01:05:23;;;;;;;;;6.25;5.25;;;;;8.20;60.75;101318.03;4966526;28;47640;-63
2024/01/07 01:07:49;;;;;;;;;7.00;4.00;;;;;8.17;60.85;101315.38;4968695;28;45569;-63
2024/01/07 01:10:17;;;;;;;;;6.25;3.75;;;;;8.12;60.96;101304.84;4975918;28;45451;-64
2024/01/07 01:12:43;;;;;;;;;6.75;5.75;;;;;8.13;60.62;101309.19;4975693;28;45383;-65
2024/01/07 01:15:09;;;;;;;;;4.50;4.25;;;;;8.11;60.75;101308.28;4974680;28;47144;-64
2024/01/07 01:17:35;;;;;;;;;5.00;5.00;;;;;8.08;60.60;101309.09;4974069;28;45524;-64
2024/01/07 01:20:02;;;;;;;;;7.25;4.50;;;;;8.10;61.15;101321.31;4964549;28;45360;-65
2024/01/07 01:22:28;;;;;;;;;3.00;3.00;;;;;8.11;60.66;101323.06;4976555;28;45351;-63
2024/01/07 01:24:55;;;;;;;;;4.25;3.25;;;;;8.05;60.56;101327.31;4974430;28;46812;-64
2024/01/07 01:27:21;;;;;;;;;3.75;3.00;;;;;8.13;60.36;101335.28;4976799;28;45497;-64
2024/01/07 01:29:47;;;;;;;;;3.75;3.50;;;;;8.03;60.33;101331.59;4975090;28;45470;-64
2024/01/07 01:32:12;;;;;;;;;3.25;2.00;;;;;8.06;59.93;101334.28;4976932;28;45573;-63
2024/01/07 01:34:40;;;;;;;;;4.50;3.00;;;;;8.01;60.04;101333.31;4975069;28;46135;-63
2024/01/07 01:37:05;;;;;;;;;5.00;2.50;;;;;8.02;60.39;101339.38;4975095;28;45746;-64
2024/01/07 01:39:31;;;;;;;;;2.00;2.00;;;;;7.97;60.18;101335.81;4975358;28;45533;-64
2024/01/07 01:41:58;;;;;;;;;2.00;1.50;;;;;7.95;60.19;101340.09;4975149;28;46104;-66
2024/01/07 01:44:23;;;;;;;;;2.75;2.75;;;;;7.93;60.47;101345.31;4976063;28;45399;-65
2024/01/07 01:46:49;;;;;;;;;2.00;2.00;;;;;7.76;60.37;101318.84;4975918;28;45335;-65
2024/01/07 01:49:15;;;;;;;;;2.00;2.00;;;;;7.90;60.19;101341.72;4975506;28;45578;-64
2024/01/07 01:51:42;;;;;;;;;2.25;2.25;;;;;7.89;60.26;101353.91;4975938;28;45256;-64
2024/01/07 01:54:08;;;;;;;;;4.00;4.00;;;;;7.84;60.39;101345.09;4975322;28;46268;-65
2024/01/07 01:56:34;;;;;;;;;5.00;3.00;;;;;7.84;59.93;101345.09;4974276;28;45598;-63
2024/01/07 01:58:59;;;;;;;;;3.50;2.00;;;;;7.84;60.04;101345.09;4975837;28;45435;-63
2024/01/07 02:01:25;;;;;;;;;3.00;3.00;;;;;7.89;60.15;101353.91;4975494;28;45320;-63
2024/01/07 02:03:54;;;;;;;;;2.00;2.00;;;;;7.91;59.77;101365.25;4975388;28;45500;-64
2024/01/07 02:06:21;;;;;;;;;2.25;2.25;;;;;7.84;59.93;101352.91;4973486;28;45836;-64
2024/01/07 02:08:48;;;;;;;;;2.25;2.00;;;;;7.85;60.10;101350.34;4977632;28;45508;-64
2024/01/07 02:11:23;;;;;;;;;4.50;1.50;;;;;7.87;59.83;101363.41;4978584;28;45476;-63
2024/01/07 02:13:49;;;;;;;;;6.00;5.00;;;;;7.85;59.96;101358.19;4979501;28;45503;-62
2024/01/07 02:16:15;;;;;;;;;2.25;2.00;;;;;7.88;60.00;101370.41;4978569;28;45363;-64
2024/01/07 02:18:41;;;;;;;;;1.25;1.25;;;;;7.87;59.79;101363.41;4993938;28;45459;-63
2024/01/07 02:21:09;;;;;;;;;5.00;2.00;;;;;7.79;60.05;101355.41;4978755;28;45553;-63
2024/01/07 02:23:34;;;;;;;;;4.75;2.00;;;;;7.89;59.63;101363.47;4993771;28;47654;-62
2024/01/07 02:26:00;;;;;;;;;2.00;2.00;;;;;7.90;59.92;101376.53;4977295;28;45468;-63
2024/01/07 02:28:26;;;;;;;;;3.00;2.00;;;;;7.84;60.11;101366.84;4977604;28;45443;-62
2024/01/07 02:30:52;;;;;;;;;3.25;1.50;;;;;7.89;59.76;101371.28;4978949;28;45463;-62
2024/01/07 02:33:17;;;;;;;;;4.50;3.00;;;;;7.90;59.49;101365.19;4978622;28;45630;-64
2024/01/07 02:35:43;;;;;;;;;5.00;2.25;;;;;7.88;59.55;101372.09;4976585;28;45521;-64
2024/01/07 02:38:09;;;;;;;;;5.25;3.00;;;;;7.74;59.48;101353.56;4978924;28;45476;-65
2024/01/07 02:40:34;;;;;;;;;4.75;3.50;;;;;7.77;59.71;101357.09;4979205;28;45531;-64
2024/01/07 02:43:00;;;;;;;;;2.00;2.00;;;;;7.75;59.55;101353.56;4979318;28;45927;-63
2024/01/07 02:45:25;;;;;;;;;2.75;2.75;;;;;7.82;59.25;101373.72;4976148;28;45546;-65
2024/01/07 02:47:51;;;;;;;;;1.25;1.00;;;;;7.80;59.72;101365.00;4978192;28;45542;-64
2024/01/07 02:50:16;;;;;;;;;3.00;1.00;;;;;7.78;59.62;101363.19;4978581;28;45376;-62
2024/01/07 02:52:42;;;;;;;;;2.00;2.00;;;;;7.78;59.52;101364.09;4978244;28;45457;-62
2024/01/07 02:55:08;;;;;;;;;4.00;2.00;;;;;7.83;59.47;101372.00;4978598;28;45410;-63
2024/01/07 02:57:34;;;;;;;;;3.25;2.00;;;;;7.83;59.27;101362.47;4978458;28;45581;-64
2024/01/07 03:00:00;;;;;;;;;4.50;2.50;;;;;7.68;59.00;101350.78;4976284;28;45857;-63
2024/01/07 03:02:26;;;;;;;;;2.00;2.00;;;;;7.64;58.78;101350.72;4977197;28;45989;-63
2024/01/07 03:04:51;;;;;;;;;2.75;2.00;;;;;7.55;58.61;101342.69;4979401;28;45411;-63
2024/01/07 03:07:17;;;;;;;;;3.25;2.25;;;;;7.64;58.89;101360.28;4977402;28;45452;-64
2024/01/07 03:09:43;;;;;;;;;2.75;2.00;;;;;7.73;58.76;101373.50;4978652;28;45449;-63
2024/01/07 03:12:08;;;;;;;;;3.25;2.50;;;;;7.78;58.60;101384.97;4978718;28;45368;-66
2024/01/07 03:14:34;;;;;;;;;3.75;2.25;;;;;7.77;58.62;101375.34;4978604;28;45450;-63
2024/01/07 03:16:59;;;;;;;;;3.00;2.00;;;;;7.76;58.83;101381.44;4977717;28;45562;-64
2024/01/07 03:19:25;;;;;;;;;4.00;2.00;;;;;7.63;58.53;101366.31;4977872;28;45406;-65
2024/01/07 03:21:50;;;;;;;;;5.00;3.00;;;;;7.71;58.44;101380.44;4977752;28;45515;-64
2024/01/07 03:24:16;;;;;;;;;3.00;3.00;;;;;7.71;58.33;101385.66;4977345;28;45498;-64
2024/01/07 03:26:41;;;;;;;;;2.50;1.50;;;;;7.61;58.39;101365.41;4979288;28;45255;-65
2024/01/07 03:29:07;;;;;;;;;1.75;1.75;;;;;7.75;58.58;101391.81;4979694;28;45487;-64
2024/01/07 03:31:33;;;;;;;;;2.75;2.00;;;;;7.73;58.97;101380.47;4978872;28;45401;-65
2024/01/07 03:33:59;;;;;;;;;5.00;4.00;;;;;7.67;58.76;101375.13;4979112;28;45499;-63
2024/01/07 03:36:24;;;;;;;;;4.00;2.00;;;;;7.45;58.44;101351.13;4977880;28;45509;-64
2024/01/07 03:38:50;;;;;;;;;2.75;2.75;;;;;7.65;58.59;101388.97;4978900;28;45494;-64
2024/01/07 03:41:19;;;;;;;;;5.50;2.75;;;;;7.62;58.53;101381.09;4978466;28;45719;-62
2024/01/07 03:43:48;;;;;;;;;5.75;2.25;;;;;7.61;58.43;101376.72;4976632;28;45539;-64
2024/01/07 03:46:14;;;;;;;;;3.75;3.75;;;;;7.64;58.37;101392.44;4978845;28;45946;-65
2024/01/07 03:48:41;;;;;;;;;2.25;2.25;;;;;7.65;58.51;101391.59;4976736;28;45488;-66
2024/01/07 03:51:06;;;;;;;;;5.00;3.00;;;;;7.67;58.24;101396.84;4975162;28;46785;-63
2024/01/07 03:53:32;;;;;;;;;3.00;3.00;;;;;7.65;57.76;101395.94;4977325;28;45431;-64
2024/01/07 03:55:58;;;;;;;;;2.25;2.25;;;;;7.62;57.81;101391.53;4979508;28;45469;-65
2024/01/07 03:58:24;;;;;;;;;6.00;4.00;;;;;7.60;58.17;101398.41;4976434;28;45479;-64
2024/01/07 04:00:49;;;;;;;;;4.00;2.00;;;;;7.60;58.06;101393.22;4977505;28;46226;-63
2024/01/07 04:03:15;;;;;;;;;5.00;4.00;;;;;7.57;57.87;101380.09;4977417;28;45431;-65
2024/01/07 04:05:40;;;;;;;;;6.00;3.00;;;;;7.62;57.87;101393.25;4976582;28;45451;-64
2024/01/07 04:08:09;;;;;;;;;3.25;3.25;;;;;7.55;57.06;101397.44;4977746;28;45427;-64
2024/01/07 04:10:34;;;;;;;;;3.25;2.25;;;;;7.51;57.86;101399.91;4976131;28;46987;-64
2024/01/07 04:13:00;;;;;;;;;3.00;2.25;;;;;7.47;57.46;101404.16;4975990;28;45780;-64
2024/01/07 04:15:25;;;;;;;;;3.75;2.00;;;;;7.47;57.56;101396.34;4977259;28;45484;-63
2024/01/07 04:17:51;;;;;;;;;3.75;3.75;;;;;7.42;57.64;101393.63;4979245;28;45324;-64
2024/01/07 04:20:16;;;;;;;;;4.00;2.00;;;;;7.42;57.42;101404.03;4977201;28;47008;-64
2024/01/07 04:22:42;;;;;;;;;2.00;2.00;;;;;7.44;57.70;101406.69;4977065;28;45262;-65
2024/01/07 04:25:08;;;;;;;;;4.75;2.00;;;;;7.47;58.07;101408.50;4975952;28;45502;-64
2024/01/07 04:27:35;;;;;;;;;4.50;2.00;;;;;7.50;58.14;101405.97;4977493;28;45566;-64
2024/01/07 04:30:01;;;;;;;;;4.00;3.00;;;;;7.50;58.15;101412.06;4970243;28;45597;-64
2024/01/07 04:32:27;;;;;;;;;3.00;1.50;;;;;7.48;57.59;101397.25;4978234;28;45390;-64
2024/01/07 04:34:52;;;;;;;;;5.00;1.75;;;;;7.48;57.13;101400.72;4977024;28;45618;-63
2024/01/07 04:37:18;;;;;;;;;3.00;3.00;;;;;7.50;57.21;101408.56;4975641;28;45459;-64
2024/01/07 04:39:43;;;;;;;;;3.00;1.00;;;;;7.47;57.49;101411.97;4977455;28;45715;-65
2024/01/07 04:42:09;;;;;;;;;3.25;3.00;;;;;7.45;57.41;101405.88;4976949;28;45347;-65
2024/01/07 04:44:35;;;;;;;;;3.00;3.00;;;;;7.48;57.48;101411.16;4975507;28;45404;-64
2024/01/07 04:47:00;;;;;;;;;3.25;2.00;;;;;7.47;57.63;101413.72;4977717;28;45293;-64
2024/01/07 04:49:26;;;;;;;;;2.00;2.00;;;;;7.45;57.22;101416.31;4976876;28;46597;-64
2024/01/07 04:51:52;;;;;;;;;4.25;1.50;;;;;7.38;57.42;101403.91;4978252;28;45464;-64
2024/01/07 04:54:18;;;;;;;;;3.75;2.75;;;;;7.40;57.34;101408.38;4978199;28;45406;-65
2024/01/07 04:56:44;;;;;;;;;7.00;3.25;;;;;7.46;57.55;101420.66;4977414;28;46035;-63
2024/01/07 04:59:10;;;;;;;;;3.00;2.25;;;;;7.39;57.87;101414.41;4975974;28;46181;-64
2024/01/07 05:01:35;;;;;;;;;2.00;2.00;;;;;7.48;57.30;101428.53;4975374;28;45532;-64
2024/01/07 05:04:02;;;;;;;;;2.50;1.75;;;;;7.44;57.24;101414.53;4975816;28;45379;-64
2024/01/07 05:06:27;;;;;;;;;2.00;1.50;;;;;7.46;57.73;101412.84;4977090;28;45459;-64
2024/01/07 05:08:53;;;;;;;;;3.00;2.50;;;;;7.43;57.36;101418.84;4975971;28;46475;-64
2024/01/07 05:11:18;;;;;;;;;2.00;2.00;;;;;7.42;57.50;101414.47;4976261;28;45609;-64
2024/01/07 05:13:44;;;;;;;;;5.50;3.00;;;;;7.49;57.48;101433.75;4976965;28;45459;-63
2024/01/07 05:16:18;;;;;;;;;3.75;2.25;;;;;7.45;57.42;101424.13;4977251;28;45482;-65
2024/01/07 05:18:48;;;;;;;;;2.00;2.00;;;;;7.46;57.43;101431.06;4975169;28;46906;-64
2024/01/07 05:21:18;;;;;;;;;4.25;2.75;;;;;7.38;57.39;101414.34;4976465;28;45522;-64
2024/01/07 05:23:43;;;;;;;;;4.50;2.75;;;;;7.44;57.50;101437.97;4987632;28;45806;-64
2024/01/07 05:26:09;;;;;;;;;4.00;4.00;;;;;7.40;57.13;101428.31;4974640;28;45684;-63
2024/01/07 05:28:36;;;;;;;;;4.00;1.50;;;;;7.38;57.57;101427.38;4974832;28;47642;-64
2024/01/07 05:31:02;;;;;;;;;3.00;2.25;;;;;7.39;58.14;101440.47;4975202;28;45499;-64
2024/01/07 05:33:27;;;;;;;;;5.25;2.50;;;;;7.35;58.04;101430.78;4976032;28;45375;-64
2024/01/07 05:35:53;;;;;;;;;2.00;2.00;;;;;7.29;58.19;101424.56;4975234;28;45471;-65
2024/01/07 05:38:19;;;;;;;;;0.00;0.00;;;;;7.33;58.15;101436.81;4976314;28;46410;-63
2024/01/07 05:40:44;;;;;;;;;5.75;3.25;;;;;7.36;58.10;101443.00;4976409;28;45518;-64
2024/01/07 05:43:10;;;;;;;;;5.75;4.00;;;;;7.36;58.02;101444.72;4976677;28;45343;-64
2024/01/07 05:45:36;;;;;;;;;6.25;2.25;;;;;7.30;58.14;101437.59;4979553;28;45419;-63
2024/01/07 05:48:01;;;;;;;;;2.00;2.00;;;;;7.21;57.97;101429.53;4979216;28;46123;-64
2024/01/07 05:50:27;;;;;;;;;2.75;2.50;;;;;7.30;58.27;101452.38;4977974;28;45316;-63
2024/01/07 05:52:54;;;;;;;;;3.00;2.75;;;;;7.37;58.35;101455.16;4979565;28;45410;-63
2024/01/07 05:55:19;;;;;;;;;2.00;2.00;;;;;7.40;58.54;101452.66;4980081;28;45341;-63
2024/01/07 05:57:45;;;;;;;;;2.75;2.00;;;;;7.36;58.38;101445.59;4979539;28;47257;-64
2024/01/07 06:00:12;;;;;;;;;1.75;1.75;;;;;7.40;58.57;101441.34;4979739;28;45836;-63
2024/01/07 06:02:39;;;;;;;;;5.00;4.25;;;;;7.40;58.63;101459.56;4978781;28;45355;-65
2024/01/07 06:05:05;;;;;;;;;3.75;3.75;;;;;7.38;58.63;101463.88;4977965;28;45642;-66
2024/01/07 06:07:34;;;;;;;;;7.75;3.00;;;;;7.40;58.52;101462.19;4979584;28;46475;-64
2024/01/07 06:10:00;;;;;;;;;5.25;2.00;;;;;7.40;59.10;101455.28;4979111;28;45341;-65
2024/01/07 06:12:25;;;;;;;;;7.75;4.00;;;;;7.38;58.92;101453.44;4978924;28;45363;-65
2024/01/07 06:14:51;;;;;;;;;19.50;16.75;;;;;7.39;58.77;101458.69;4979169;28;45923;-64
2024/01/07 06:17:16;;;;;;;;;18.75;16.50;;;;;7.44;58.75;101470.13;4978891;28;45469;-67
2024/01/07 06:19:42;;;;;;;;;8.75;8.25;;;;;7.43;58.64;101465.78;4978657;28;45388;-65
2024/01/07 06:22:08;;;;;;;;;8.25;4.00;;;;;7.38;58.73;101459.56;4980724;28;45309;-63
2024/01/07 06:24:33;;;;;;;;;7.25;4.25;;;;;7.37;58.89;101449.97;4980745;28;45318;-63
2024/01/07 06:26:59;;;;;;;;;4.25;3.00;;;;;7.44;58.72;101464.91;4980515;28;46145;-63
2024/01/07 06:29:25;;;;;;;;;3.50;2.25;;;;;7.40;58.80;101450.06;4980095;28;45446;-64
2024/01/07 06:31:50;;;;;;;;;5.50;3.00;;;;;7.46;58.70;101464.09;4980595;28;45454;-63
2024/01/07 06:34:16;;;;;;;;;3.00;3.00;;;;;7.29;58.54;101435.84;4978327;28;45534;-64
2024/01/07 06:36:41;;;;;;;;;4.00;3.75;;;;;7.46;58.64;101458.88;4979072;28;46298;-64
2024/01/07 06:39:08;;;;;;;;;2.50;2.00;;;;;7.45;58.92;101468.44;4978656;28;45350;-64
2024/01/07 06:41:34;;;;;;;;;2.50;2.50;;;;;7.44;58.99;101469.25;4979092;28;45346;-63
2024/01/07 06:44:00;;;;;;;;;3.00;3.00;;;;;7.41;59.10;101464.84;4978594;28;45482;-63
2024/01/07 06:46:25;;;;;;;;;4.25;3.25;;;;;7.43;59.47;101470.09;4979218;28;45839;-64
2024/01/07 06:48:51;;;;;;;;;4.00;4.00;;;;;7.39;59.02;101457.81;4980213;28;45471;-63
2024/01/07 06:51:16;;;;;;;;;4.50;3.00;;;;;7.41;59.03;101472.66;4978390;28;45157;-64
2024/01/07 06:53:42;;;;;;;;;5.00;4.00;;;;;7.40;59.25;101475.22;4978751;28;45549;-64
2024/01/07 06:56:07;;;;;;;;;3.00;3.00;;;;;7.36;59.51;101476.88;4977247;28;47918;-64
2024/01/07 06:58:33;;;;;;;;;5.25;3.00;;;;;7.35;59.61;101479.44;4977421;28;45486;-65
2024/01/07 07:00:59;;;;;;;;;5.25;2.75;;;;;7.29;59.85;101471.47;4978400;28;45526;-65
2024/01/07 07:03:24;;;;;;;;;4.75;4.00;;;;;7.35;59.79;101492.47;4979421;28;45396;-64
2024/01/07 07:05:50;;;;;;;;;3.25;3.25;;;;;7.28;59.80;101483.59;4978671;28;45498;-64
2024/01/07 07:08:16;;;;;;;;;3.75;3.75;;;;;7.36;60.05;101494.25;4978462;28;45435;-63
2024/01/07 07:10:42;;;;;;;;;6.00;5.00;;;;;7.30;60.25;101491.44;4979013;28;45776;-65
2024/01/07 07:13:08;;;;;;;;;3.75;3.00;;;;;7.35;59.91;101495.94;4977812;28;45486;-66
2024/01/07 07:15:34;;;;;;;;;3.00;3.00;;;;;7.35;60.22;101498.53;4976971;28;46745;-64
2024/01/07 07:17:59;;;;;;;;;3.25;3.25;;;;;7.32;59.62;101498.47;4978367;28;45466;-64
2024/01/07 07:20:25;;;;;;;;;2.75;2.75;;;;;7.30;60.10;101507.09;4978313;28;45395;-63
2024/01/07 07:22:50;;;;;;;;;3.75;3.75;;;;;7.29;59.82;101514.03;4979845;28;45438;-64
2024/01/07 07:25:16;;;;;;;;;5.50;3.50;;;;;7.27;59.93;101513.09;4977773;28;46089;-64
2024/01/07 07:27:41;;;;;;;;;7.00;4.25;;;;;7.23;59.76;101513.84;4978177;28;45475;-65
2024/01/07 07:30:07;;;;;;;;;6.50;3.00;;;;;7.29;59.51;101524.44;4976884;28;45503;-64
2024/01/07 07:32:33;;;;;;;;;5.25;5.00;;;;;7.28;59.87;101527.00;4978366;28;45439;-64
2024/01/07 07:34:59;;;;;;;;;9.50;5.75;;;;;7.16;59.78;101501.47;4977607;28;45580;-64
2024/01/07 07:37:25;;;;;;;;;5.50;5.50;;;;;7.28;59.71;101513.97;4976771;28;45655;-65
2024/01/07 07:39:51;;;;;;;;;5.25;4.00;;;;;7.27;59.76;101527.84;4978710;28;45326;-64
2024/01/07 07:42:16;;;;;;;;;6.25;4.25;;;;;7.27;59.52;101518.31;4977930;28;45411;-66
2024/01/07 07:44:42;;;;;;;;;7.25;6.00;;;;;7.28;59.54;101527.88;4978031;28;45401;-66
2024/01/07 07:47:11;;;;;;;;;7.25;5.00;;;;;7.16;59.00;101528.41;4978169;28;45421;-65
2024/01/07 07:49:39;;;;;;;;;9.00;6.50;;;;;7.11;59.15;101530.00;4978132;28;45390;-63
2024/01/07 07:52:05;;;;;;;;;6.00;6.00;;;;;7.06;59.00;101520.31;4977287;28;45351;-64
2024/01/07 07:54:30;;;;;;;;;7.75;7.75;;;;;7.06;58.09;101522.91;4977180;28;45443;-65
2024/01/07 07:56:56;;;;;;;;;7.75;6.25;;;;;7.03;58.52;101536.72;4977782;28;45482;-64
2024/01/07 07:59:22;;;;;;;;;8.75;6.00;;;;;7.01;58.07;101538.41;4975861;28;45448;-64
2024/01/07 08:01:47;;;;;;;;;7.75;4.00;;;;;6.94;58.39;101531.25;4978170;28;45395;-64
2024/01/07 08:04:13;;;;;;;;;9.00;7.75;;;;;6.83;58.46;101528.31;4977625;28;45528;-65
2024/01/07 08:06:38;;;;;;;;;8.00;5.25;;;;;6.87;57.74;101537.13;4974969;28;45512;-63
2024/01/07 08:09:04;;;;;;;;;7.75;7.50;;;;;6.75;58.02;101528.09;4977953;28;45537;-63
2024/01/07 08:11:30;;;;;;;;;8.25;8.25;;;;;6.88;57.90;101547.59;4978716;28;45488;-64
2024/01/07 08:13:57;;;;;;;;;8.00;6.50;;;;;6.66;58.36;101521.72;4978146;28;46479;-64
2024/01/07 08:16:25;;;;;;;;;9.50;8.75;;;;;6.85;58.15;101565.69;4976226;28;45391;-64
2024/01/07 08:18:52;;;;;;;;;9.50;7.50;;;;;6.85;57.90;101564.81;4977566;28;45431;-65
2024/01/07 08:21:21;;;;;;;;;6.25;5.50;;;;;6.86;57.90;101575.31;4975755;28;45715;-64
2024/01/07 08:23:47;;;;;;;;;6.25;6.00;;;;;6.87;58.30;101569.25;4976024;28;47767;-64
2024/01/07 08:26:12;;;;;;;;;7.00;7.00;;;;;6.90;57.95;101560.63;4976110;28;45412;-64
2024/01/07 08:28:38;;;;;;;;;4.50;4.50;;;;;6.98;58.57;101569.59;4978986;28;45357;-64
2024/01/07 08:31:03;;;;;;;;;8.50;5.25;;;;;7.06;60.37;101570.69;4979012;28;46035;-64
2024/01/07 08:33:31;;;;;;;;;7.00;7.00;;;;;7.09;59.04;101577.69;4976956;28;45382;-65
2024/01/07 08:35:57;;;;;;;;;7.25;7.25;;;;;7.10;57.56;101575.16;4975870;28;45748;-64
2024/01/07 08:38:22;;;;;;;;;12.00;9.00;;;;;6.96;56.50;101577.34;4976468;28;45591;-64
2024/01/07 08:40:47;;;;;;;;;8.25;8.00;;;;;6.98;57.09;101574.78;4977000;28;45554;-64
2024/01/07 08:43:14;;;;;;;;;8.50;7.00;;;;;6.98;56.69;101577.41;4975689;28;47214;-64
2024/01/07 08:45:39;;;;;;;;;9.00;6.75;;;;;7.00;56.37;101588.75;4975013;28;45789;-64
2024/01/07 08:48:06;;;;;;;;;11.50;9.50;;;;;7.02;56.25;101579.22;4974278;28;45800;-64
2024/01/07 08:50:31;;;;;;;;;11.25;10.00;;;;;7.11;56.91;101583.84;4975794;28;46182;-63
2024/01/07 08:52:57;;;;;;;;;13.25;9.00;;;;;7.16;56.45;101593.56;4978110;28;45510;-65
2024/01/07 08:55:22;;;;;;;;;11.50;10.00;;;;;7.13;56.68;101576.97;4975303;28;45264;-64
2024/01/07 08:57:48;;;;;;;;;15.00;10.00;;;;;7.03;56.37;101585.34;4975642;28;45484;-65
2024/01/07 09:00:15;;;;;;;;;10.00;9.25;;;;;7.00;56.32;101586.16;4992042;28;45384;-63
2024/01/07 09:02:41;;;;;;;;;11.75;9.00;;;;;6.96;56.34;101585.16;4976463;28;45415;-64
2024/01/07 09:05:06;;;;;;;;;12.25;11.75;;;;;6.89;56.00;101582.31;4976311;28;46687;-65
2024/01/07 09:07:32;;;;;;;;;15.00;10.75;;;;;6.91;56.33;101588.47;4976841;28;45380;-64
2024/01/07 09:10:00;;;;;;;;;14.50;13.75;;;;;6.86;56.15;101601.34;4976990;28;45402;-65
2024/01/07 09:12:27;;;;;;;;;13.25;9.50;;;;;6.76;55.91;101594.97;4974506;28;45467;-65
2024/01/07 09:14:52;;;;;;;;;17.00;14.75;;;;;6.77;55.48;101601.06;4974444;28;45730;-65
2024/01/07 09:17:18;;;;;;;;;17.00;14.50;;;;;6.71;55.62;101595.63;4975710;28;45409;-64
2024/01/07 09:19:44;;;;;;;;;17.25;14.50;;;;;6.57;55.55;101570.06;4979625;28;45300;-65
2024/01/07 09:22:11;;;;;;;;;16.25;14.00;;;;;6.65;55.73;101575.50;4979176;28;45990;-63
2024/01/07 09:24:37;;;;;;;;;22.25;15.25;;;;;6.72;55.42;101600.03;4979940;28;45430;-64
2024/01/07 09:27:03;;;;;;;;;19.25;16.00;;;;;6.75;55.32;101597.50;4978462;28;45462;-65
2024/01/07 09:29:28;;;;;;;;;16.25;12.75;;;;;6.68;55.48;101596.44;4980455;28;45569;-65
2024/01/07 09:31:54;;;;;;;;;18.50;14.50;;;;;6.67;56.15;101594.69;4979426;28;45551;-64
2024/01/07 09:34:19;;;;;;;;;14.25;14.25;;;;;6.71;55.80;101601.72;4979556;28;45447;-65
2024/01/07 09:36:45;;;;;;;;;19.75;18.00;;;;;6.71;55.15;101604.31;4981224;28;45395;-65
2024/01/07 09:39:11;;;;;;;;;16.25;12.75;;;;;6.67;55.81;101605.09;4979586;28;45317;-66
2024/01/07 09:41:36;;;;;;;;;13.75;13.50;;;;;6.77;55.72;101609.75;4978009;28;45552;-64
2024/01/07 09:44:03;;;;;;;;;14.75;12.50;;;;;6.88;55.68;101619.59;4981037;28;45324;-65
2024/01/07 09:46:30;;;;;;;;;13.75;13.75;;;;;6.91;55.59;101617.13;4979995;28;45306;-67
2024/01/07 09:48:55;;;;;;;;;18.50;13.50;;;;;6.84;55.54;101613.44;4979637;28;45343;-65
2024/01/07 09:51:23;;;;;;;;;20.25;16.00;;;;;6.89;55.44;101627.47;4978324;28;46106;-64
2024/01/07 09:53:52;;;;;;;;;15.50;15.50;;;;;6.86;55.20;101610.84;4980140;28;45596;-63
2024/01/07 09:56:33;;;;;;;;;16.25;13.75;;;;;6.87;55.57;101621.31;4980817;28;45380;-64
2024/01/07 09:58:59;;;;;;;;;19.50;18.75;;;;;6.88;55.45;101636.13;4978455;28;45415;-64
2024/01/07 10:01:25;;;;;;;;;22.00;18.00;;;;;6.79;55.22;101631.50;4979394;28;46637;-63
2024/01/07 10:03:51;;;;;;;;;24.25;21.25;;;;;6.73;56.11;101631.28;4980376;28;45447;-64
2024/01/07 10:06:20;;;;;;;;;21.00;16.25;;;;;6.62;55.52;101623.97;4979038;28;45403;-64
2024/01/07 10:08:46;;;;;;;;;20.75;18.75;;;;;6.55;55.80;101613.38;4979044;28;45866;-65
2024/01/07 10:11:14;;;;;;;;;25.25;19.25;;;;;6.67;56.25;101628.53;4979437;28;46514;-63
2024/01/07 10:13:39;;;;;;;;;18.50;16.00;;;;;6.65;56.24;101618.91;4979375;28;45604;-64
2024/01/07 10:16:08;;;;;;;;;16.50;16.50;;;;;6.78;55.85;101634.06;4979959;28;45358;-67
2024/01/07 10:18:34;;;;;;;;;18.25;16.00;;;;;6.76;55.89;101628.81;4978463;28;45733;-63
2024/01/07 10:21:03;;;;;;;;;21.75;18.25;;;;;6.85;55.96;101637.75;4978953;28;45457;-64
2024/01/07 10:23:29;;;;;;;;;18.75;17.75;;;;;6.83;56.00;101637.69;4979243;28;45769;-64
2024/01/07 10:25:56;;;;;;;;;22.25;18.25;;;;;6.77;55.75;101627.09;4978043;28;45951;-64
2024/01/07 10:28:22;;;;;;;;;20.50;16.25;;;;;6.90;56.17;101638.75;4977759;28;45518;-62
2024/01/07 10:30:52;;;;;;;;;17.50;15.25;;;;;6.95;56.86;101645.91;4977547;28;46983;-64
2024/01/07 10:33:19;;;;;;;;;15.50;15.50;;;;;6.89;57.26;101624.88;4979702;28;45450;-64
2024/01/07 10:35:53;;;;;;;;;23.00;17.75;;;;;6.96;56.09;101625.94;4978768;28;45372;-64
2024/01/07 10:38:19;;;;;;;;;19.00;17.25;;;;;6.97;56.09;101638.13;4979744;28;45574;-65
2024/01/07 10:40:47;;;;;;;;;24.25;19.50;;;;;6.94;56.11;101646.72;4978825;28;46582;-65
2024/01/07 10:43:15;;;;;;;;;20.75;17.50;;;;;6.90;56.05;101644.84;4979726;28;45442;-65
2024/01/07 10:45:40;;;;;;;;;22.00;18.00;;;;;6.87;56.21;101642.16;4978525;28;45472;-64
2024/01/07 10:48:08;;;;;;;;;18.25;16.50;;;;;6.82;58.40;101632.44;4978900;28;45494;-65
2024/01/07 10:50:34;;;;;;;;;28.75;20.50;;;;;6.82;55.88;101638.53;4979337;28;46225;-64
2024/01/07 10:53:05;;;;;;;;;22.25;19.00;;;;;6.85;58.01;101624.72;4978480;28;45443;-63
2024/01/07 10:55:34;;;;;;;;;22.50;19.00;;;;;6.92;56.62;101627.56;4978663;28;45843;-65
2024/01/07 10:58:01;;;;;;;;;27.25;19.50;;;;;6.93;56.44;101644.97;4978115;28;45431;-63
2024/01/07 11:00:26;;;;;;;;;22.25;20.50;;;;;6.89;57.35;101621.38;4978164;28;46259;-64
2024/01/07 11:02:54;;;;;;;;;29.00;26.25;;;;;6.99;57.38;101639.94;4977013;28;45527;-64
2024/01/07 11:05:44;;;;;;;;;34.25;30.25;;;;;7.03;58.00;101634.84;4977608;28;45432;-65
2024/01/07 11:08:24;;;;;;;;;26.50;25.00;;;;;7.04;56.44;101634.00;4978510;28;45527;-63
2024/01/07 11:11:04;;;;;;;;;22.25;18.75;;;;;6.92;55.83;101644.91;4978627;28;46277;-63
2024/01/07 11:13:34;;;;;;;;;32.00;24.00;;;;;6.97;56.34;101646.81;4976881;28;45562;-63
2024/01/07 11:16:02;;;;;;;;;29.50;27.50;;;;;6.92;55.70;101642.31;4961017;28;45367;-62
2024/01/07 11:18:33;;;;;;;;;30.50;28.25;;;;;6.88;56.53;101654.34;4978387;28;45459;-63
2024/01/07 11:21:03;;;;;;;;;31.25;29.75;;;;;6.76;56.42;101647.03;4978220;28;45415;-62
2024/01/07 11:23:38;;;;;;;;;28.50;23.50;;;;;6.85;59.88;101654.25;4978093;28;45455;-63
2024/01/07 11:26:04;;;;;;;;;29.25;25.25;;;;;6.87;56.74;101649.09;4977990;28;45689;-62